sensor_id;sensor_type;location;lat;lon;timestamp;P1;durP1;ratioP1;P2;durP2;ratioP2
25846;SDS011;13676;50.168;8.568;2022-11-30T00:02:14;19.45;;;13.75;;
25846;SDS011;13676;50.168;8.568;2022-11-30T00:04:39;20.45;;;13.35;;
25846;SDS011;13676;50.168;8.568;2022-11-30T00:07:05;20.63;;;13.73;;
25846;SDS011;13676;50.168;8.568;2022-11-30T00:09:30;19.85;;;12.68;;
25846;SDS011;13676;50.168;8.568;2022-11-30T00:11:55;23.35;;;13.63;;
25846;SDS011;13676;50.168;8.568;2022-11-30T00:14:21;21.23;;;14.13;;
25846;SDS011;13676;50.168;8.568;2022-11-30T00:16:46;22.42;;;13.93;;
25846;SDS011;13676;50.168;8.568;2022-11-30T00:19:11;23.63;;;14.05;;
25846;SDS011;13676;50.168;8.568;2022-11-30T00:21:37;20.85;;;13.80;;
25846;SDS011;13676;50.168;8.568;2022-11-30T00:24:03;20.80;;;13.90;;
25846;SDS011;13676;50.168;8.568;2022-11-30T00:26:29;22.13;;;12.93;;
25846;SDS011;13676;50.168;8.568;2022-11-30T00:28:54;16.27;;;12.95;;
25846;SDS011;13676;50.168;8.568;2022-11-30T00:31:20;20.27;;;12.27;;
25846;SDS011;13676;50.168;8.568;2022-11-30T00:33:45;19.77;;;12.25;;
25846;SDS011;13676;50.168;8.568;2022-11-30T00:36:12;18.73;;;12.82;;
25846;SDS011;13676;50.168;8.568;2022-11-30T00:38:39;21.67;;;13.35;;
25846;SDS011;13676;50.168;8.568;2022-11-30T00:41:04;23.35;;;13.48;;
25846;SDS011;13676;50.168;8.568;2022-11-30T00:43:30;23.00;;;13.70;;
25846;SDS011;13676;50.168;8.568;2022-11-30T00:45:55;21.85;;;14.27;;
25846;SDS011;13676;50.168;8.568;2022-11-30T00:48:21;22.33;;;13.02;;
25846;SDS011;13676;50.168;8.568;2022-11-30T00:50:47;19.63;;;12.38;;
25846;SDS011;13676;50.168;8.568;2022-11-30T00:53:13;21.20;;;12.27;;
25846;SDS011;13676;50.168;8.568;2022-11-30T00:55:38;20.38;;;12.07;;
25846;SDS011;13676;50.168;8.568;2022-11-30T00:58:04;18.13;;;12.00;;
25846;SDS011;13676;50.168;8.568;2022-11-30T01:00:31;17.98;;;12.18;;
25846;SDS011;13676;50.168;8.568;2022-11-30T01:02:57;21.00;;;11.70;;
25846;SDS011;13676;50.168;8.568;2022-11-30T01:05:25;20.40;;;12.30;;
25846;SDS011;13676;50.168;8.568;2022-11-30T01:07:50;22.02;;;13.00;;
25846;SDS011;13676;50.168;8.568;2022-11-30T01:10:16;21.00;;;13.52;;
25846;SDS011;13676;50.168;8.568;2022-11-30T01:12:41;23.42;;;12.85;;
25846;SDS011;13676;50.168;8.568;2022-11-30T01:15:07;20.38;;;12.57;;
25846;SDS011;13676;50.168;8.568;2022-11-30T01:17:33;18.00;;;11.68;;
25846;SDS011;13676;50.168;8.568;2022-11-30T01:19:58;21.35;;;11.82;;
25846;SDS011;13676;50.168;8.568;2022-11-30T01:22:23;24.35;;;13.02;;
25846;SDS011;13676;50.168;8.568;2022-11-30T01:24:49;22.40;;;12.65;;
25846;SDS011;13676;50.168;8.568;2022-11-30T01:27:14;19.98;;;11.80;;
25846;SDS011;13676;50.168;8.568;2022-11-30T01:29:39;28.38;;;14.10;;
25846;SDS011;13676;50.168;8.568;2022-11-30T01:32:05;21.35;;;12.68;;
25846;SDS011;13676;50.168;8.568;2022-11-30T01:34:30;20.75;;;12.98;;
25846;SDS011;13676;50.168;8.568;2022-11-30T01:36:55;21.92;;;12.02;;
25846;SDS011;13676;50.168;8.568;2022-11-30T01:39:21;24.13;;;13.02;;
25846;SDS011;13676;50.168;8.568;2022-11-30T01:41:46;23.13;;;13.82;;
25846;SDS011;13676;50.168;8.568;2022-11-30T01:46:44;26.15;;;11.13;;
25846;SDS011;13676;50.168;8.568;2022-11-30T01:49:12;25.48;;;12.55;;
25846;SDS011;13676;50.168;8.568;2022-11-30T01:51:44;25.95;;;11.65;;
25846;SDS011;13676;50.168;8.568;2022-11-30T01:54:12;21.15;;;11.60;;
25846;SDS011;13676;50.168;8.568;2022-11-30T01:56:44;19.77;;;11.23;;
25846;SDS011;13676;50.168;8.568;2022-11-30T01:59:15;18.15;;;11.18;;
25846;SDS011;13676;50.168;8.568;2022-11-30T02:01:42;19.95;;;10.50;;
25846;SDS011;13676;50.168;8.568;2022-11-30T02:04:25;19.27;;;11.70;;
25846;SDS011;13676;50.168;8.568;2022-11-30T02:06:53;19.20;;;10.68;;
25846;SDS011;13676;50.168;8.568;2022-11-30T02:09:20;19.20;;;11.20;;
25846;SDS011;13676;50.168;8.568;2022-11-30T02:11:46;21.38;;;10.73;;
25846;SDS011;13676;50.168;8.568;2022-11-30T02:16:55;15.82;;;9.15;;
25846;SDS011;13676;50.168;8.568;2022-11-30T02:25:23;14.63;;;9.80;;
25846;SDS011;13676;50.168;8.568;2022-11-30T02:30:38;13.57;;;8.98;;
25846;SDS011;13676;50.168;8.568;2022-11-30T02:33:07;17.38;;;9.35;;
25846;SDS011;13676;50.168;8.568;2022-11-30T02:35:37;13.90;;;8.98;;
25846;SDS011;13676;50.168;8.568;2022-11-30T02:38:05;18.77;;;9.75;;
25846;SDS011;13676;50.168;8.568;2022-11-30T02:40:30;19.90;;;10.45;;
25846;SDS011;13676;50.168;8.568;2022-11-30T02:42:56;17.58;;;10.13;;
25846;SDS011;13676;50.168;8.568;2022-11-30T02:48:43;14.70;;;9.32;;
25846;SDS011;13676;50.168;8.568;2022-11-30T02:51:14;17.52;;;10.25;;
25846;SDS011;13676;50.168;8.568;2022-11-30T02:53:43;15.57;;;9.27;;
25846;SDS011;13676;50.168;8.568;2022-11-30T02:56:09;18.13;;;8.90;;
25846;SDS011;13676;50.168;8.568;2022-11-30T02:58:34;16.48;;;9.32;;
25846;SDS011;13676;50.168;8.568;2022-11-30T03:01:00;16.63;;;10.23;;
25846;SDS011;13676;50.168;8.568;2022-11-30T03:03:25;17.05;;;9.65;;
25846;SDS011;13676;50.168;8.568;2022-11-30T03:05:50;17.92;;;10.60;;
25846;SDS011;13676;50.168;8.568;2022-11-30T03:08:16;16.00;;;9.18;;
25846;SDS011;13676;50.168;8.568;2022-11-30T03:10:41;16.58;;;9.73;;
25846;SDS011;13676;50.168;8.568;2022-11-30T03:13:06;19.05;;;10.80;;
25846;SDS011;13676;50.168;8.568;2022-11-30T03:15:32;18.75;;;9.98;;
25846;SDS011;13676;50.168;8.568;2022-11-30T03:18:00;14.52;;;9.80;;
25846;SDS011;13676;50.168;8.568;2022-11-30T03:20:26;20.13;;;10.82;;
25846;SDS011;13676;50.168;8.568;2022-11-30T03:22:51;19.30;;;10.43;;
25846;SDS011;13676;50.168;8.568;2022-11-30T03:25:16;19.58;;;10.07;;
25846;SDS011;13676;50.168;8.568;2022-11-30T03:27:42;16.83;;;9.38;;
25846;SDS011;13676;50.168;8.568;2022-11-30T03:30:07;19.20;;;9.60;;
25846;SDS011;13676;50.168;8.568;2022-11-30T03:32:33;14.48;;;9.27;;
25846;SDS011;13676;50.168;8.568;2022-11-30T03:35:04;21.55;;;10.63;;
25846;SDS011;13676;50.168;8.568;2022-11-30T03:37:30;20.95;;;10.30;;
25846;SDS011;13676;50.168;8.568;2022-11-30T03:39:55;17.25;;;8.98;;
25846;SDS011;13676;50.168;8.568;2022-11-30T03:42:21;17.88;;;10.23;;
25846;SDS011;13676;50.168;8.568;2022-11-30T03:44:46;18.90;;;10.32;;
25846;SDS011;13676;50.168;8.568;2022-11-30T03:47:11;18.33;;;9.45;;
25846;SDS011;13676;50.168;8.568;2022-11-30T03:49:37;19.25;;;9.98;;
25846;SDS011;13676;50.168;8.568;2022-11-30T03:52:02;18.88;;;11.10;;
25846;SDS011;13676;50.168;8.568;2022-11-30T03:54:27;16.63;;;9.90;;
25846;SDS011;13676;50.168;8.568;2022-11-30T03:56:53;21.58;;;10.60;;
25846;SDS011;13676;50.168;8.568;2022-11-30T03:59:18;19.23;;;11.10;;
25846;SDS011;13676;50.168;8.568;2022-11-30T04:01:43;19.08;;;10.63;;
25846;SDS011;13676;50.168;8.568;2022-11-30T04:04:10;22.30;;;10.43;;
25846;SDS011;13676;50.168;8.568;2022-11-30T04:06:35;17.50;;;11.40;;
25846;SDS011;13676;50.168;8.568;2022-11-30T04:09:04;22.58;;;12.52;;
25846;SDS011;13676;50.168;8.568;2022-11-30T04:11:30;21.40;;;12.77;;
25846;SDS011;13676;50.168;8.568;2022-11-30T04:13:55;25.40;;;13.35;;
25846;SDS011;13676;50.168;8.568;2022-11-30T04:16:20;20.85;;;13.20;;
25846;SDS011;13676;50.168;8.568;2022-11-30T04:18:45;21.00;;;12.45;;
25846;SDS011;13676;50.168;8.568;2022-11-30T04:21:11;22.75;;;13.77;;
25846;SDS011;13676;50.168;8.568;2022-11-30T04:23:37;21.63;;;13.32;;
25846;SDS011;13676;50.168;8.568;2022-11-30T04:26:04;21.40;;;13.45;;
25846;SDS011;13676;50.168;8.568;2022-11-30T04:28:31;25.55;;;13.20;;
25846;SDS011;13676;50.168;8.568;2022-11-30T04:30:57;22.45;;;13.18;;
25846;SDS011;13676;50.168;8.568;2022-11-30T04:33:24;21.13;;;13.77;;
25846;SDS011;13676;50.168;8.568;2022-11-30T04:35:50;24.98;;;13.48;;
25846;SDS011;13676;50.168;8.568;2022-11-30T04:38:19;20.20;;;13.05;;
25846;SDS011;13676;50.168;8.568;2022-11-30T04:40:44;22.23;;;12.80;;
25846;SDS011;13676;50.168;8.568;2022-11-30T04:43:10;27.00;;;13.00;;
25846;SDS011;13676;50.168;8.568;2022-11-30T04:45:36;22.92;;;12.63;;
25846;SDS011;13676;50.168;8.568;2022-11-30T04:48:02;22.83;;;13.48;;
25846;SDS011;13676;50.168;8.568;2022-11-30T04:50:28;19.77;;;13.23;;
25846;SDS011;13676;50.168;8.568;2022-11-30T04:52:53;21.42;;;12.75;;
25846;SDS011;13676;50.168;8.568;2022-11-30T04:55:18;24.67;;;12.30;;
25846;SDS011;13676;50.168;8.568;2022-11-30T04:57:44;17.67;;;12.40;;
25846;SDS011;13676;50.168;8.568;2022-11-30T05:00:10;20.13;;;11.68;;
25846;SDS011;13676;50.168;8.568;2022-11-30T05:02:37;18.23;;;12.50;;
25846;SDS011;13676;50.168;8.568;2022-11-30T05:05:02;19.80;;;11.75;;
25846;SDS011;13676;50.168;8.568;2022-11-30T05:07:27;21.42;;;12.60;;
25846;SDS011;13676;50.168;8.568;2022-11-30T05:09:53;25.45;;;13.18;;
25846;SDS011;13676;50.168;8.568;2022-11-30T05:12:18;21.33;;;13.23;;
25846;SDS011;13676;50.168;8.568;2022-11-30T05:14:43;21.55;;;12.25;;
25846;SDS011;13676;50.168;8.568;2022-11-30T05:17:09;19.63;;;12.57;;
25846;SDS011;13676;50.168;8.568;2022-11-30T05:19:34;22.95;;;13.30;;
25846;SDS011;13676;50.168;8.568;2022-11-30T05:21:59;22.90;;;12.07;;
25846;SDS011;13676;50.168;8.568;2022-11-30T05:24:25;21.38;;;11.82;;
25846;SDS011;13676;50.168;8.568;2022-11-30T05:26:50;20.60;;;11.52;;
25846;SDS011;13676;50.168;8.568;2022-11-30T05:29:15;22.52;;;12.13;;
25846;SDS011;13676;50.168;8.568;2022-11-30T05:31:41;22.73;;;12.20;;
25846;SDS011;13676;50.168;8.568;2022-11-30T05:34:06;23.13;;;12.80;;
25846;SDS011;13676;50.168;8.568;2022-11-30T05:36:31;22.83;;;12.15;;
25846;SDS011;13676;50.168;8.568;2022-11-30T05:38:57;18.65;;;11.70;;
25846;SDS011;13676;50.168;8.568;2022-11-30T05:41:22;21.58;;;12.40;;
25846;SDS011;13676;50.168;8.568;2022-11-30T05:43:47;15.07;;;10.02;;
25846;SDS011;13676;50.168;8.568;2022-11-30T05:46:13;22.27;;;12.00;;
25846;SDS011;13676;50.168;8.568;2022-11-30T05:48:38;22.75;;;12.50;;
25846;SDS011;13676;50.168;8.568;2022-11-30T05:51:04;23.40;;;12.32;;
25846;SDS011;13676;50.168;8.568;2022-11-30T05:53:33;19.98;;;11.95;;
25846;SDS011;13676;50.168;8.568;2022-11-30T05:56:06;19.23;;;11.45;;
25846;SDS011;13676;50.168;8.568;2022-11-30T05:58:33;22.15;;;12.55;;
25846;SDS011;13676;50.168;8.568;2022-11-30T06:00:59;23.75;;;12.40;;
25846;SDS011;13676;50.168;8.568;2022-11-30T06:03:24;19.65;;;12.18;;
25846;SDS011;13676;50.168;8.568;2022-11-30T06:05:51;22.27;;;11.23;;
25846;SDS011;13676;50.168;8.568;2022-11-30T06:08:17;20.17;;;11.05;;
25846;SDS011;13676;50.168;8.568;2022-11-30T06:10:43;18.85;;;10.13;;
25846;SDS011;13676;50.168;8.568;2022-11-30T06:13:08;20.35;;;10.98;;
25846;SDS011;13676;50.168;8.568;2022-11-30T06:15:37;22.20;;;11.40;;
25846;SDS011;13676;50.168;8.568;2022-11-30T06:18:04;18.45;;;10.75;;
25846;SDS011;13676;50.168;8.568;2022-11-30T06:20:30;20.45;;;10.98;;
25846;SDS011;13676;50.168;8.568;2022-11-30T06:22:55;16.85;;;11.00;;
25846;SDS011;13676;50.168;8.568;2022-11-30T06:25:21;21.55;;;11.93;;
25846;SDS011;13676;50.168;8.568;2022-11-30T06:27:47;19.30;;;11.23;;
25846;SDS011;13676;50.168;8.568;2022-11-30T06:30:12;19.33;;;11.25;;
25846;SDS011;13676;50.168;8.568;2022-11-30T06:32:38;17.80;;;10.95;;
25846;SDS011;13676;50.168;8.568;2022-11-30T06:35:04;23.15;;;12.55;;
25846;SDS011;13676;50.168;8.568;2022-11-30T06:37:32;21.48;;;12.25;;
25846;SDS011;13676;50.168;8.568;2022-11-30T06:39:59;19.65;;;11.75;;
25846;SDS011;13676;50.168;8.568;2022-11-30T06:42:24;19.55;;;11.50;;
25846;SDS011;13676;50.168;8.568;2022-11-30T06:44:49;27.90;;;12.85;;
25846;SDS011;13676;50.168;8.568;2022-11-30T06:47:15;25.88;;;12.82;;
25846;SDS011;13676;50.168;8.568;2022-11-30T06:49:40;19.58;;;11.88;;
25846;SDS011;13676;50.168;8.568;2022-11-30T06:52:06;21.60;;;12.18;;
25846;SDS011;13676;50.168;8.568;2022-11-30T06:54:31;22.52;;;12.55;;
25846;SDS011;13676;50.168;8.568;2022-11-30T06:56:56;21.17;;;11.90;;
25846;SDS011;13676;50.168;8.568;2022-11-30T06:59:22;25.25;;;12.80;;
25846;SDS011;13676;50.168;8.568;2022-11-30T07:01:47;19.52;;;11.63;;
25846;SDS011;13676;50.168;8.568;2022-11-30T07:04:13;27.42;;;12.48;;
25846;SDS011;13676;50.168;8.568;2022-11-30T07:06:38;20.48;;;12.10;;
25846;SDS011;13676;50.168;8.568;2022-11-30T07:09:04;21.75;;;11.85;;
25846;SDS011;13676;50.168;8.568;2022-11-30T07:11:30;20.88;;;12.45;;
25846;SDS011;13676;50.168;8.568;2022-11-30T07:13:56;21.90;;;11.23;;
25846;SDS011;13676;50.168;8.568;2022-11-30T07:16:21;20.65;;;11.48;;
25846;SDS011;13676;50.168;8.568;2022-11-30T07:18:47;22.90;;;11.00;;
25846;SDS011;13676;50.168;8.568;2022-11-30T07:21:12;17.08;;;10.73;;
25846;SDS011;13676;50.168;8.568;2022-11-30T07:23:37;19.55;;;10.95;;
25846;SDS011;13676;50.168;8.568;2022-11-30T07:26:21;20.55;;;12.13;;
25846;SDS011;13676;50.168;8.568;2022-11-30T07:28:47;23.50;;;13.00;;
25846;SDS011;13676;50.168;8.568;2022-11-30T07:31:19;23.80;;;13.25;;
25846;SDS011;13676;50.168;8.568;2022-11-30T07:33:48;21.58;;;12.55;;
25846;SDS011;13676;50.168;8.568;2022-11-30T07:36:15;21.55;;;12.70;;
25846;SDS011;13676;50.168;8.568;2022-11-30T07:38:41;25.33;;;14.27;;
25846;SDS011;13676;50.168;8.568;2022-11-30T07:41:07;27.52;;;13.85;;
25846;SDS011;13676;50.168;8.568;2022-11-30T07:43:32;28.02;;;14.68;;
25846;SDS011;13676;50.168;8.568;2022-11-30T07:45:58;31.67;;;16.08;;
25846;SDS011;13676;50.168;8.568;2022-11-30T07:48:24;29.50;;;15.48;;
25846;SDS011;13676;50.168;8.568;2022-11-30T07:50:49;29.92;;;15.57;;
25846;SDS011;13676;50.168;8.568;2022-11-30T07:53:15;28.17;;;16.55;;
25846;SDS011;13676;50.168;8.568;2022-11-30T07:55:41;36.35;;;17.20;;
25846;SDS011;13676;50.168;8.568;2022-11-30T07:58:07;34.70;;;17.42;;
25846;SDS011;13676;50.168;8.568;2022-11-30T08:00:34;30.92;;;15.80;;
25846;SDS011;13676;50.168;8.568;2022-11-30T08:03:00;30.58;;;15.65;;
25846;SDS011;13676;50.168;8.568;2022-11-30T08:05:25;25.90;;;15.45;;
25846;SDS011;13676;50.168;8.568;2022-11-30T08:07:51;30.38;;;16.50;;
25846;SDS011;13676;50.168;8.568;2022-11-30T08:10:22;30.40;;;15.45;;
25846;SDS011;13676;50.168;8.568;2022-11-30T08:12:48;27.55;;;15.75;;
25846;SDS011;13676;50.168;8.568;2022-11-30T08:15:14;29.98;;;15.82;;
25846;SDS011;13676;50.168;8.568;2022-11-30T08:17:40;26.85;;;15.07;;
25846;SDS011;13676;50.168;8.568;2022-11-30T08:20:06;31.90;;;16.33;;
25846;SDS011;13676;50.168;8.568;2022-11-30T08:22:33;29.58;;;15.88;;
25846;SDS011;13676;50.168;8.568;2022-11-30T08:24:58;30.70;;;15.48;;
25846;SDS011;13676;50.168;8.568;2022-11-30T08:27:24;27.55;;;15.18;;
25846;SDS011;13676;50.168;8.568;2022-11-30T08:29:49;33.80;;;17.00;;
25846;SDS011;13676;50.168;8.568;2022-11-30T08:32:15;29.35;;;15.93;;
25846;SDS011;13676;50.168;8.568;2022-11-30T08:34:40;32.53;;;16.63;;
25846;SDS011;13676;50.168;8.568;2022-11-30T08:37:06;32.90;;;16.17;;
25846;SDS011;13676;50.168;8.568;2022-11-30T08:39:31;30.77;;;15.82;;
25846;SDS011;13676;50.168;8.568;2022-11-30T08:41:58;36.97;;;16.85;;
25846;SDS011;13676;50.168;8.568;2022-11-30T08:44:24;33.25;;;16.00;;
25846;SDS011;13676;50.168;8.568;2022-11-30T08:46:49;31.80;;;17.27;;
25846;SDS011;13676;50.168;8.568;2022-11-30T08:49:15;38.92;;;18.25;;
25846;SDS011;13676;50.168;8.568;2022-11-30T08:51:40;34.88;;;17.88;;
25846;SDS011;13676;50.168;8.568;2022-11-30T08:54:05;33.83;;;17.50;;
25846;SDS011;13676;50.168;8.568;2022-11-30T08:56:31;36.55;;;18.40;;
25846;SDS011;13676;50.168;8.568;2022-11-30T08:58:56;38.83;;;17.80;;
25846;SDS011;13676;50.168;8.568;2022-11-30T09:01:22;30.73;;;16.80;;
25846;SDS011;13676;50.168;8.568;2022-11-30T09:03:50;30.20;;;16.92;;
25846;SDS011;13676;50.168;8.568;2022-11-30T09:06:18;31.95;;;18.10;;
25846;SDS011;13676;50.168;8.568;2022-11-30T09:08:45;30.88;;;16.50;;
25846;SDS011;13676;50.168;8.568;2022-11-30T09:11:22;32.80;;;16.90;;
25846;SDS011;13676;50.168;8.568;2022-11-30T09:16:15;40.53;;;18.83;;
25846;SDS011;13676;50.168;8.568;2022-11-30T09:18:42;31.88;;;17.27;;
25846;SDS011;13676;50.168;8.568;2022-11-30T09:21:08;31.13;;;17.10;;
25846;SDS011;13676;50.168;8.568;2022-11-30T09:23:35;28.60;;;16.52;;
25846;SDS011;13676;50.168;8.568;2022-11-30T09:26:02;33.58;;;17.25;;
25846;SDS011;13676;50.168;8.568;2022-11-30T09:28:29;32.42;;;17.17;;
25846;SDS011;13676;50.168;8.568;2022-11-30T09:30:59;33.13;;;18.67;;
25846;SDS011;13676;50.168;8.568;2022-11-30T09:33:32;34.20;;;18.48;;
25846;SDS011;13676;50.168;8.568;2022-11-30T09:35:58;36.78;;;18.52;;
25846;SDS011;13676;50.168;8.568;2022-11-30T09:38:25;32.03;;;16.58;;
25846;SDS011;13676;50.168;8.568;2022-11-30T09:40:57;34.90;;;17.10;;
25846;SDS011;13676;50.168;8.568;2022-11-30T09:46:10;31.40;;;17.23;;
25846;SDS011;13676;50.168;8.568;2022-11-30T09:51:41;44.80;;;22.87;;
25846;SDS011;13676;50.168;8.568;2022-11-30T09:54:12;44.97;;;23.63;;
25846;SDS011;13676;50.168;8.568;2022-11-30T09:56:42;46.15;;;23.38;;
25846;SDS011;13676;50.168;8.568;2022-11-30T09:59:13;39.08;;;21.50;;
25846;SDS011;13676;50.168;8.568;2022-11-30T10:01:43;47.60;;;23.42;;
25846;SDS011;13676;50.168;8.568;2022-11-30T10:04:25;43.00;;;21.90;;
25846;SDS011;13676;50.168;8.568;2022-11-30T10:11:58;40.10;;;21.10;;
25846;SDS011;13676;50.168;8.568;2022-11-30T10:20:33;37.90;;;20.85;;
25846;SDS011;13676;50.168;8.568;2022-11-30T10:25:56;36.85;;;20.35;;
25846;SDS011;13676;50.168;8.568;2022-11-30T10:30:54;42.22;;;19.88;;
25846;SDS011;13676;50.168;8.568;2022-11-30T10:33:22;42.38;;;19.40;;
25846;SDS011;13676;50.168;8.568;2022-11-30T10:35:53;44.05;;;21.90;;
25846;SDS011;13676;50.168;8.568;2022-11-30T10:38:29;41.03;;;19.67;;
25846;SDS011;13676;50.168;8.568;2022-11-30T10:41:03;40.90;;;20.17;;
25846;SDS011;13676;50.168;8.568;2022-11-30T10:43:34;38.47;;;20.00;;
25846;SDS011;13676;50.168;8.568;2022-11-30T10:46:07;34.85;;;18.95;;
25846;SDS011;13676;50.168;8.568;2022-11-30T10:48:43;34.75;;;19.42;;
25846;SDS011;13676;50.168;8.568;2022-11-30T10:51:21;31.73;;;17.52;;
25846;SDS011;13676;50.168;8.568;2022-11-30T10:53:46;40.78;;;18.27;;
25846;SDS011;13676;50.168;8.568;2022-11-30T10:56:12;32.47;;;16.52;;
25846;SDS011;13676;50.168;8.568;2022-11-30T10:58:39;37.30;;;17.88;;
25846;SDS011;13676;50.168;8.568;2022-11-30T11:06:40;25.67;;;15.02;;
25846;SDS011;13676;50.168;8.568;2022-11-30T11:11:56;24.02;;;13.15;;
25846;SDS011;13676;50.168;8.568;2022-11-30T11:14:26;25.33;;;13.63;;
25846;SDS011;13676;50.168;8.568;2022-11-30T11:19:42;18.67;;;11.18;;
25846;SDS011;13676;50.168;8.568;2022-11-30T11:22:18;20.35;;;11.27;;
25846;SDS011;13676;50.168;8.568;2022-11-30T11:24:45;21.92;;;11.05;;
25846;SDS011;13676;50.168;8.568;2022-11-30T11:27:28;21.30;;;11.20;;
25846;SDS011;13676;50.168;8.568;2022-11-30T11:29:56;16.85;;;10.02;;
25846;SDS011;13676;50.168;8.568;2022-11-30T11:32:23;17.75;;;9.88;;
25846;SDS011;13676;50.168;8.568;2022-11-30T11:34:49;14.15;;;8.95;;
25846;SDS011;13676;50.168;8.568;2022-11-30T11:39:54;13.40;;;7.55;;
25846;SDS011;13676;50.168;8.568;2022-11-30T11:42:20;12.32;;;7.78;;
25846;SDS011;13676;50.168;8.568;2022-11-30T11:44:48;15.32;;;8.77;;
25846;SDS011;13676;50.168;8.568;2022-11-30T11:49:51;16.20;;;9.23;;
25846;SDS011;13676;50.168;8.568;2022-11-30T11:52:28;13.10;;;7.97;;
25846;SDS011;13676;50.168;8.568;2022-11-30T11:57:34;19.92;;;10.40;;
25846;SDS011;13676;50.168;8.568;2022-11-30T12:02:37;17.00;;;10.85;;
25846;SDS011;13676;50.168;8.568;2022-11-30T12:05:14;17.15;;;10.80;;
25846;SDS011;13676;50.168;8.568;2022-11-30T12:10:39;24.65;;;11.50;;
25846;SDS011;13676;50.168;8.568;2022-11-30T12:13:13;28.58;;;14.57;;
25846;SDS011;13676;50.168;8.568;2022-11-30T12:26:39;23.33;;;13.85;;
25846;SDS011;13676;50.168;8.568;2022-11-30T12:42:51;27.92;;;15.82;;
25846;SDS011;13676;50.168;8.568;2022-11-30T12:50:43;18.42;;;11.88;;
25846;SDS011;13676;50.168;8.568;2022-11-30T12:53:21;19.90;;;12.07;;
25846;SDS011;13676;50.168;8.568;2022-11-30T12:55:53;21.65;;;10.98;;
25846;SDS011;13676;50.168;8.568;2022-11-30T13:08:45;21.55;;;11.85;;
25846;SDS011;13676;50.168;8.568;2022-11-30T13:11:23;23.65;;;14.27;;
25846;SDS011;13676;50.168;8.568;2022-11-30T13:13:54;24.52;;;13.25;;
25846;SDS011;13676;50.168;8.568;2022-11-30T13:16:21;23.38;;;14.43;;
25846;SDS011;13676;50.168;8.568;2022-11-30T13:18:47;21.33;;;12.85;;
25846;SDS011;13676;50.168;8.568;2022-11-30T13:24:00;18.58;;;12.15;;
25846;SDS011;13676;50.168;8.568;2022-11-30T13:31:49;24.33;;;15.27;;
25846;SDS011;13676;50.168;8.568;2022-11-30T13:36:47;22.48;;;14.05;;
25846;SDS011;13676;50.168;8.568;2022-11-30T13:41:38;27.17;;;15.85;;
25846;SDS011;13676;50.168;8.568;2022-11-30T13:47:13;30.42;;;16.73;;
25846;SDS011;13676;50.168;8.568;2022-11-30T13:49:41;35.85;;;19.05;;
25846;SDS011;13676;50.168;8.568;2022-11-30T13:52:10;32.33;;;18.80;;
25846;SDS011;13676;50.168;8.568;2022-11-30T13:57:03;36.47;;;18.98;;
25846;SDS011;13676;50.168;8.568;2022-11-30T14:00:00;30.67;;;18.40;;
25846;SDS011;13676;50.168;8.568;2022-11-30T14:05:39;33.03;;;17.60;;
25846;SDS011;13676;50.168;8.568;2022-11-30T14:10:28;27.60;;;17.67;;
25846;SDS011;13676;50.168;8.568;2022-11-30T14:18:01;27.95;;;16.50;;
25846;SDS011;13676;50.168;8.568;2022-11-30T14:20:41;29.58;;;16.25;;
25846;SDS011;13676;50.168;8.568;2022-11-30T14:23:11;27.92;;;16.05;;
25846;SDS011;13676;50.168;8.568;2022-11-30T14:25:39;31.70;;;17.65;;
25846;SDS011;13676;50.168;8.568;2022-11-30T14:28:12;30.25;;;17.98;;
25846;SDS011;13676;50.168;8.568;2022-11-30T14:30:40;36.58;;;19.23;;
25846;SDS011;13676;50.168;8.568;2022-11-30T14:33:12;30.73;;;19.88;;
25846;SDS011;13676;50.168;8.568;2022-11-30T14:35:40;37.95;;;21.83;;
25846;SDS011;13676;50.168;8.568;2022-11-30T14:38:27;37.95;;;21.42;;
25846;SDS011;13676;50.168;8.568;2022-11-30T14:40:56;35.97;;;19.92;;
25846;SDS011;13676;50.168;8.568;2022-11-30T14:43:22;36.55;;;20.67;;
25846;SDS011;13676;50.168;8.568;2022-11-30T14:46:04;34.70;;;19.27;;
25846;SDS011;13676;50.168;8.568;2022-11-30T14:48:30;37.15;;;19.45;;
25846;SDS011;13676;50.168;8.568;2022-11-30T14:50:59;34.70;;;19.13;;
25846;SDS011;13676;50.168;8.568;2022-11-30T15:01:25;38.40;;;19.55;;
25846;SDS011;13676;50.168;8.568;2022-11-30T15:03:54;30.60;;;17.88;;
25846;SDS011;13676;50.168;8.568;2022-11-30T15:06:28;32.88;;;17.63;;
25846;SDS011;13676;50.168;8.568;2022-11-30T15:08:55;30.77;;;17.58;;
25846;SDS011;13676;50.168;8.568;2022-11-30T15:11:22;32.50;;;17.90;;
25846;SDS011;13676;50.168;8.568;2022-11-30T15:13:49;29.30;;;17.33;;
25846;SDS011;13676;50.168;8.568;2022-11-30T15:18:49;30.70;;;17.77;;
25846;SDS011;13676;50.168;8.568;2022-11-30T15:21:33;29.77;;;17.88;;
25846;SDS011;13676;50.168;8.568;2022-11-30T15:23:59;32.15;;;18.05;;
25846;SDS011;13676;50.168;8.568;2022-11-30T15:31:56;23.45;;;14.30;;
25846;SDS011;13676;50.168;8.568;2022-11-30T15:36:48;30.10;;;19.73;;
25846;SDS011;13676;50.168;8.568;2022-11-30T15:39:18;27.98;;;17.85;;
25846;SDS011;13676;50.168;8.568;2022-11-30T15:41:45;32.55;;;17.92;;
25846;SDS011;13676;50.168;8.568;2022-11-30T15:47:24;28.83;;;17.25;;
25846;SDS011;13676;50.168;8.568;2022-11-30T15:49:52;27.17;;;17.30;;
25846;SDS011;13676;50.168;8.568;2022-11-30T15:52:18;22.60;;;16.07;;
25846;SDS011;13676;50.168;8.568;2022-11-30T15:54:48;23.50;;;14.05;;
25846;SDS011;13676;50.168;8.568;2022-11-30T15:57:17;21.83;;;14.70;;
25846;SDS011;13676;50.168;8.568;2022-11-30T15:59:43;23.77;;;14.85;;
25846;SDS011;13676;50.168;8.568;2022-11-30T16:02:24;23.10;;;14.77;;
25846;SDS011;13676;50.168;8.568;2022-11-30T16:07:20;23.73;;;14.02;;
25846;SDS011;13676;50.168;8.568;2022-11-30T16:09:48;21.27;;;15.13;;
25846;SDS011;13676;50.168;8.568;2022-11-30T16:12:21;23.85;;;15.75;;
25846;SDS011;13676;50.168;8.568;2022-11-30T16:14:52;20.88;;;14.20;;
25846;SDS011;13676;50.168;8.568;2022-11-30T16:17:18;22.23;;;15.38;;
25846;SDS011;13676;50.168;8.568;2022-11-30T16:19:44;20.65;;;14.80;;
25846;SDS011;13676;50.168;8.568;2022-11-30T16:22:10;20.83;;;14.38;;
25846;SDS011;13676;50.168;8.568;2022-11-30T16:24:37;19.27;;;13.85;;
25846;SDS011;13676;50.168;8.568;2022-11-30T16:27:08;16.73;;;11.63;;
25846;SDS011;13676;50.168;8.568;2022-11-30T16:29:41;22.48;;;14.40;;
25846;SDS011;13676;50.168;8.568;2022-11-30T16:32:08;18.02;;;13.73;;
25846;SDS011;13676;50.168;8.568;2022-11-30T16:34:37;21.30;;;15.18;;
25846;SDS011;13676;50.168;8.568;2022-11-30T16:37:04;23.40;;;16.95;;
25846;SDS011;13676;50.168;8.568;2022-11-30T16:39:29;21.50;;;15.02;;
25846;SDS011;13676;50.168;8.568;2022-11-30T16:41:55;21.58;;;15.52;;
25846;SDS011;13676;50.168;8.568;2022-11-30T16:44:20;20.77;;;13.98;;
25846;SDS011;13676;50.168;8.568;2022-11-30T16:46:48;18.42;;;13.30;;
25846;SDS011;13676;50.168;8.568;2022-11-30T16:49:13;18.08;;;11.68;;
25846;SDS011;13676;50.168;8.568;2022-11-30T16:51:39;16.17;;;11.73;;
25846;SDS011;13676;50.168;8.568;2022-11-30T16:54:08;19.27;;;13.40;;
25846;SDS011;13676;50.168;8.568;2022-11-30T16:56:36;18.42;;;13.68;;
25846;SDS011;13676;50.168;8.568;2022-11-30T16:59:01;18.80;;;13.15;;
25846;SDS011;13676;50.168;8.568;2022-11-30T17:03:59;16.83;;;11.82;;
25846;SDS011;13676;50.168;8.568;2022-11-30T17:06:28;15.75;;;10.95;;
25846;SDS011;13676;50.168;8.568;2022-11-30T17:11:31;16.95;;;10.35;;